Time;durP1;ratioP1;P1;durP2;ratioP2;P2;SDS_P1;SDS_P2;PMS_P1;PMS_P2;Temp;Humidity;BMP_temperature;BMP_pressure;BME280_temperature;BME280_humidity;BME280_pressure;Samples;Min_cycle;Max_cycle;Signal;HPM_P1;HPM_P2
2023/02/10 00:00:05;;;;;;;;;;;;;;;11.72;67.43;103195.94;1266409;23;633;-65
2023/02/10 00:00:56;;;;;;;;;;;;;;;11.72;67.89;103187.94;1266515;23;656;-65
2023/02/10 00:01:46;;;;;;;;;;;;;;;11.73;67.82;103187.00;1266432;23;645;-64
2023/02/10 00:02:36;;;;;;;;;;;;;;;11.72;67.76;103194.16;1266424;23;606;-65
2023/02/10 00:03:27;;;;;;;;;;;;;;;11.71;67.74;103189.72;1265924;23;679;-65
2023/02/10 00:04:17;;;;;;;;;;;;;;;11.71;67.76;103195.06;1267411;23;768;-65
2023/02/10 00:05:08;;;;;;;;;;;;;;;11.71;67.54;103187.06;1266505;23;606;-65
2023/02/10 00:05:58;;;;;;;;;;;;;;;11.70;67.24;103192.44;1267362;23;636;-65
2023/02/10 00:06:49;;;;;;;;;;;;;;;11.70;67.95;103187.97;1266519;23;614;-65
2023/02/10 00:07:39;;;;;;;;;;;;;;;11.69;67.95;103190.69;1266499;23;673;-65
2023/02/10 00:08:29;;;;;;;;;;;;;;;11.70;67.79;103189.78;1266231;23;618;-64
2023/02/10 00:09:20;;;;;;;;;;;;;;;11.70;67.93;103192.44;1267300;23;656;-65
2023/02/10 00:10:10;;;;;;;;;;;;;;;11.68;67.87;103187.16;1266436;23;672;-64
2023/02/10 00:11:01;;;;;;;;;;;;;;;11.67;68.13;103189.88;1266440;23;647;-65
2023/02/10 00:11:59;;;;;;;;;;;;;;;11.67;67.86;103185.41;1266715;23;637;-65
2023/02/10 00:12:49;;;;;;;;;;;;;;;11.64;67.93;103187.31;1266401;23;598;-65
2023/02/10 00:13:40;;;;;;;;;;;;;;;11.64;67.87;103182.00;1266547;23;633;-65
2023/02/10 00:14:30;;;;;;;;;;;;;;;11.65;67.50;103184.56;1266588;23;606;-65
2023/02/10 00:15:21;;;;;;;;;;;;;;;11.65;67.49;103181.03;1266412;23;613;-64
2023/02/10 00:16:11;;;;;;;;;;;;;;;11.66;67.37;103185.44;1267216;23;656;-65
2023/02/10 00:17:02;;;;;;;;;;;;;;;11.66;68.17;103178.31;1266510;23;652;-65
2023/02/10 00:17:52;;;;;;;;;;;;;;;11.67;67.70;103177.41;1266258;23;711;-65
2023/02/10 00:18:42;;;;;;;;;;;;;;;11.68;68.00;103183.63;1265946;23;613;-65
2023/02/10 00:19:33;;;;;;;;;;;;;;;11.67;67.43;103176.53;1266408;23;618;-65
2023/02/10 00:20:23;;;;;;;;;;;;;;;11.65;67.59;103181.91;1266230;23;633;-65
2023/02/10 00:21:14;;;;;;;;;;;;;;;11.64;67.35;103182.88;1266502;23;641;-65
2023/02/10 00:22:04;;;;;;;;;;;;;;;11.66;68.00;103186.31;1266558;23;649;-65
2023/02/10 00:22:55;;;;;;;;;;;;;;;11.66;68.22;103186.31;1266518;23;641;-65
2023/02/10 00:23:45;;;;;;;;;;;;;;;11.66;68.15;103181.00;1266507;23;684;-65
2023/02/10 00:24:36;;;;;;;;;;;;;;;11.67;67.28;103192.53;1266391;23;585;-65
2023/02/10 00:25:26;;;;;;;;;;;;;;;11.66;67.64;103182.78;1266432;23;622;-65
2023/02/10 00:26:16;;;;;;;;;;;;;;;11.63;67.55;103185.56;1266351;23;665;-65
2023/02/10 00:27:07;;;;;;;;;;;;;;;11.65;67.37;103191.72;1266498;23;745;-65
2023/02/10 00:27:57;;;;;;;;;;;;;;;11.66;67.72;103197.00;1267287;23;1885;-65
2023/02/10 00:28:48;;;;;;;;;;;;;;;11.64;68.10;103190.00;1266297;23;614;-65
2023/02/10 00:29:38;;;;;;;;;;;;;;;11.65;67.44;103191.72;1266733;23;645;-65
2023/02/10 00:30:28;;;;;;;;;;;;;;;11.64;67.32;103196.22;1267206;23;605;-65
2023/02/10 00:31:21;;;;;;;;;;;;;;;11.66;67.53;103190.78;1267349;23;703;-65
2023/02/10 00:32:11;;;;;;;;;;;;;;;11.63;67.59;103180.25;1265980;23;618;-65
2023/02/10 00:33:01;;;;;;;;;;;;;;;11.65;67.68;103189.03;1266290;23;786;-65
2023/02/10 00:33:52;;;;;;;;;;;;;;;11.65;68.29;103192.59;1267333;23;700;-65
2023/02/10 00:34:42;;;;;;;;;;;;;;;11.65;68.19;103189.03;1266266;23;645;-65
2023/02/10 00:35:33;;;;;;;;;;;;;;;11.65;67.97;103186.38;1267325;23;641;-64
2023/02/10 00:36:24;;;;;;;;;;;;;;;11.63;67.60;103189.13;1267325;23;629;-64
2023/02/10 00:37:14;;;;;;;;;;;;;;;11.65;67.75;103195.25;1267157;23;656;-64
2023/02/10 00:38:05;;;;;;;;;;;;;;;11.61;67.77;103188.28;1266507;23;602;-65
2023/02/10 00:38:55;;;;;;;;;;;;;;;11.64;68.18;103192.66;1267092;23;654;-64
2023/02/10 00:39:46;;;;;;;;;;;;;;;11.63;68.14;103191.78;1267145;23;653;-65
2023/02/10 00:40:36;;;;;;;;;;;;;;;11.63;67.51;103190.91;1267202;23;513;-64
2023/02/10 00:41:26;;;;;;;;;;;;;;;11.63;67.45;103193.59;1267934;23;613;-65
2023/02/10 00:42:17;;;;;;;;;;;;;;;11.63;68.20;103196.25;1267221;23;626;-64
2023/02/10 00:43:07;;;;;;;;;;;;;;;11.63;68.05;103198.94;1267969;23;712;-65
2023/02/10 00:43:58;;;;;;;;;;;;;;;11.62;67.61;103189.16;1267058;23;854;-64
2023/02/10 00:44:48;;;;;;;;;;;;;;;11.61;68.17;103187.41;1267932;23;656;-64
2023/02/10 00:45:39;;;;;;;;;;;;;;;11.60;67.55;103189.22;1267819;23;621;-65
2023/02/10 00:46:29;;;;;;;;;;;;;;;11.60;68.26;103197.22;1267216;23;633;-64
2023/02/10 00:47:19;;;;;;;;;;;;;;;11.59;67.70;103189.25;1266942;23;739;-64
2023/02/10 00:48:10;;;;;;;;;;;;;;;11.60;68.08;103191.88;1267009;23;1905;-64
2023/02/10 00:49:00;;;;;;;;;;;;;;;11.60;68.09;103196.34;1261617;23;657;-64
2023/02/10 00:49:51;;;;;;;;;;;;;;;11.61;68.26;103187.41;1261573;23;654;-65
2023/02/10 00:50:41;;;;;;;;;;;;;;;11.61;68.16;103188.28;1267700;23;633;-64
2023/02/10 00:51:32;;;;;;;;;;;;;;;11.61;68.32;103193.63;1267036;23;732;-64
2023/02/10 00:52:22;;;;;;;;;;;;;;;11.58;68.59;103187.50;1267238;23;657;-65
2023/02/10 00:53:13;;;;;;;;;;;;;;;11.60;68.23;103186.53;1267013;23;669;-64
2023/02/10 00:54:03;;;;;;;;;;;;;;;11.59;68.32;103178.59;1267176;23;820;-64
2023/02/10 00:54:53;;;;;;;;;;;;;;;11.58;68.43;103184.84;1266998;23;598;-64
2023/02/10 00:55:44;;;;;;;;;;;;;;;11.58;68.19;103177.72;1267129;23;680;-64
2023/02/10 00:56:34;;;;;;;;;;;;;;;11.60;68.37;103175.00;1267192;23;605;-65
2023/02/10 00:57:25;;;;;;;;;;;;;;;11.61;67.80;103182.97;1267082;23;610;-65
2023/02/10 00:58:15;;;;;;;;;;;;;;;11.63;68.42;103180.25;1267101;23;569;-64
2023/02/10 00:59:05;;;;;;;;;;;;;;;11.62;68.17;103183.81;1267083;23;613;-65
2023/02/10 00:59:56;;;;;;;;;;;;;;;11.61;68.58;103184.75;1267191;23;609;-64
2023/02/10 01:00:46;;;;;;;;;;;;;;;11.60;68.53;103183.00;1266988;23;681;-64
2023/02/10 01:01:37;;;;;;;;;;;;;;;11.60;68.47;103194.56;1266419;23;821;-65
2023/02/10 01:02:27;;;;;;;;;;;;;;;11.59;68.26;103189.25;1267230;23;634;-65
2023/02/10 01:03:18;;;;;;;;;;;;;;;11.61;68.17;103190.09;1267032;23;863;-65
2023/02/10 01:04:08;;;;;;;;;;;;;;;11.60;68.11;103191.88;1267229;23;782;-65
2023/02/10 01:04:59;;;;;;;;;;;;;;;11.59;68.07;103197.28;1267068;23;618;-65
2023/02/10 01:05:49;;;;;;;;;;;;;;;11.59;67.70;103194.59;1267035;23;657;-64
2023/02/10 01:06:40;;;;;;;;;;;;;;;11.60;67.82;103193.69;1267053;23;685;-64
2023/02/10 01:07:30;;;;;;;;;;;;;;;11.59;68.22;103194.59;1267177;23;645;-64
2023/02/10 01:08:21;;;;;;;;;;;;;;;11.58;68.07;103198.19;1266870;23;1909;-64
2023/02/10 01:09:11;;;;;;;;;;;;;;;11.59;67.98;103197.28;1267102;23;696;-64
2023/02/10 01:10:01;;;;;;;;;;;;;;;11.58;67.54;103198.19;1267158;23;598;-64
2023/02/10 01:10:52;;;;;;;;;;;;;;;11.58;67.98;103195.53;1267114;23;636;-64
2023/02/10 01:11:42;;;;;;;;;;;;;;;11.58;68.30;103201.75;1267270;23;633;-64
2023/02/10 01:12:33;;;;;;;;;;;;;;;11.58;67.53;103199.06;1266977;23;638;-64
2023/02/10 01:13:23;;;;;;;;;;;;;;;11.56;67.85;103202.72;1267206;23;700;-64
2023/02/10 01:14:14;;;;;;;;;;;;;;;11.54;68.03;103208.09;1266937;23;606;-64
2023/02/10 01:15:04;;;;;;;;;;;;;;;11.56;67.68;103197.38;1267280;23;696;-64
2023/02/10 01:15:54;;;;;;;;;;;;;;;11.57;68.44;103202.66;1266419;23;646;-64
2023/02/10 01:16:45;;;;;;;;;;;;;;;11.59;68.52;103203.50;1266965;23;618;-64
2023/02/10 01:17:35;;;;;;;;;;;;;;;11.57;68.01;103202.66;1267190;23;646;-64
2023/02/10 01:18:26;;;;;;;;;;;;;;;11.58;67.53;103204.41;1267046;23;622;-64
2023/02/10 01:19:16;;;;;;;;;;;;;;;11.57;68.16;103205.31;1267220;23;653;-64
2023/02/10 01:20:06;;;;;;;;;;;;;;;11.59;68.17;103210.63;1267003;23;638;-64
2023/02/10 01:20:57;;;;;;;;;;;;;;;11.58;67.44;103204.41;1267010;23;660;-64
2023/02/10 01:21:47;;;;;;;;;;;;;;;11.58;68.31;103206.19;1267196;23;634;-64
2023/02/10 01:22:38;;;;;;;;;;;;;;;11.58;67.52;103211.53;1261424;23;622;-64
2023/02/10 01:23:28;;;;;;;;;;;;;;;11.58;67.82;103208.88;1261519;23;602;-64
2023/02/10 01:24:19;;;;;;;;;;;;;;;11.57;67.63;103216.00;1267678;23;657;-64
2023/02/10 01:25:09;;;;;;;;;;;;;;;11.57;68.26;103212.47;1267085;23;614;-64
2023/02/10 01:25:59;;;;;;;;;;;;;;;11.57;68.54;103216.00;1267090;23;708;-64
2023/02/10 01:26:50;;;;;;;;;;;;;;;11.58;67.76;103208.88;1267157;23;657;-64
2023/02/10 01:27:40;;;;;;;;;;;;;;;11.58;68.00;103211.53;1267203;23;621;-64
2023/02/10 01:28:31;;;;;;;;;;;;;;;11.58;68.13;103216.88;1267016;23;599;-65
2023/02/10 01:29:21;;;;;;;;;;;;;;;11.58;67.77;103215.09;1267075;23;626;-65
2023/02/10 01:30:12;;;;;;;;;;;;;;;11.56;67.60;103218.72;1261103;23;621;-64
2023/02/10 01:31:02;;;;;;;;;;;;;;;11.58;68.17;103214.22;1261536;23;637;-64
2023/02/10 01:31:52;;;;;;;;;;;;;;;11.57;68.37;103212.47;1268736;23;672;-64
2023/02/10 01:32:43;;;;;;;;;;;;;;;11.57;67.60;103215.13;1267105;23;649;-64
2023/02/10 01:33:33;;;;;;;;;;;;;;;11.55;68.16;103219.66;1267107;23;661;-64
2023/02/10 01:34:24;;;;;;;;;;;;;;;11.55;67.92;103215.19;1266995;23;653;-65
2023/02/10 01:35:14;;;;;;;;;;;;;;;11.55;68.18;103219.66;1267153;23;696;-64
2023/02/10 01:36:04;;;;;;;;;;;;;;;11.52;67.79;103212.59;1266914;23;614;-64
2023/02/10 01:36:55;;;;;;;;;;;;;;;11.52;67.84;103214.41;1267184;23;649;-65
2023/02/10 01:37:45;;;;;;;;;;;;;;;11.54;68.32;103215.22;1267076;23;622;-64
2023/02/10 01:38:36;;;;;;;;;;;;;;;11.55;67.71;103214.31;1267037;23;657;-64
2023/02/10 01:39:26;;;;;;;;;;;;;;;11.54;67.39;103215.22;1267119;23;637;-64
2023/02/10 01:40:17;;;;;;;;;;;;;;;11.53;67.62;103219.69;1267139;23;633;-64
2023/02/10 01:41:07;;;;;;;;;;;;;;;11.51;68.31;103216.19;1267022;23;644;-64
2023/02/10 01:41:57;;;;;;;;;;;;;;;11.52;68.10;103214.41;1267176;23;637;-64
2023/02/10 01:42:48;;;;;;;;;;;;;;;11.52;68.08;103209.94;1267051;23;646;-64
2023/02/10 01:43:38;;;;;;;;;;;;;;;11.52;68.53;103212.59;1267030;23;665;-64
2023/02/10 01:44:29;;;;;;;;;;;;;;;11.52;67.58;103214.41;1267072;23;620;-65
2023/02/10 01:45:19;;;;;;;;;;;;;;;11.49;67.43;103221.56;1267308;23;653;-64
2023/02/10 01:46:10;;;;;;;;;;;;;;;11.49;68.10;103218.91;1266701;23;1091;-64
2023/02/10 01:47:00;;;;;;;;;;;;;;;11.52;67.65;103217.94;1267196;23;641;-64
2023/02/10 01:47:50;;;;;;;;;;;;;;;11.52;68.23;103219.75;1267776;23;637;-64
2023/02/10 01:48:41;;;;;;;;;;;;;;;11.53;68.42;103218.81;1267894;23;602;-64
2023/02/10 01:49:31;;;;;;;;;;;;;;;11.54;67.66;103217.91;1267908;23;640;-64
2023/02/10 01:50:22;;;;;;;;;;;;;;;11.52;67.79;103219.75;1266274;23;641;-64
2023/02/10 01:51:12;;;;;;;;;;;;;;;11.51;67.74;103218.88;1266680;23;665;-64
2023/02/10 01:52:02;;;;;;;;;;;;;;;11.48;68.22;103219.81;1266624;23;614;-64
2023/02/10 01:52:53;;;;;;;;;;;;;;;11.46;68.36;103219.00;1266827;23;604;-64
2023/02/10 01:53:43;;;;;;;;;;;;;;;11.46;67.90;103221.66;1266769;23;622;-65
2023/02/10 01:54:34;;;;;;;;;;;;;;;11.47;68.53;103218.06;1266652;23;645;-65
2023/02/10 01:55:24;;;;;;;;;;;;;;;11.47;68.42;103217.19;1266772;23;637;-65
2023/02/10 01:56:14;;;;;;;;;;;;;;;11.47;68.68;103226.09;1266613;23;787;-65
2023/02/10 01:57:05;;;;;;;;;;;;;;;11.48;67.79;103217.16;1267623;23;638;-65
2023/02/10 01:57:55;;;;;;;;;;;;;;;11.48;68.34;103216.28;1267638;23;629;-65
2023/02/10 01:58:46;;;;;;;;;;;;;;;11.48;67.61;103218.94;1266653;23;597;-65
2023/02/10 01:59:36;;;;;;;;;;;;;;;11.49;68.58;103216.22;1267021;23;625;-65
2023/02/10 02:00:27;;;;;;;;;;;;;;;11.47;67.61;103218.06;1266708;23;641;-65
2023/02/10 02:01:17;;;;;;;;;;;;;;;11.47;67.84;103217.19;1266847;23;661;-65
2023/02/10 02:02:08;;;;;;;;;;;;;;;11.44;67.75;103215.53;1262034;23;609;-65
2023/02/10 02:02:58;;;;;;;;;;;;;;;11.41;68.42;103214.75;1262015;23;708;-65
2023/02/10 02:03:49;;;;;;;;;;;;;;;11.42;68.59;103212.03;1266471;23;649;-65
2023/02/10 02:04:39;;;;;;;;;;;;;;;11.42;68.58;103214.69;1266563;23;653;-64
2023/02/10 02:05:30;;;;;;;;;;;;;;;11.42;67.83;103220.03;1266559;23;634;-65
2023/02/10 02:06:22;;;;;;;;;;;;;;;11.44;67.91;103210.19;1266554;23;821;-65
2023/02/10 02:07:12;;;;;;;;;;;;;;;11.45;68.73;103216.41;1266654;23;653;-65
2023/02/10 02:08:03;;;;;;;;;;;;;;;11.42;68.44;103216.50;1267528;23;1926;-65
2023/02/10 02:08:53;;;;;;;;;;;;;;;11.42;68.72;103209.34;1266796;23;637;-65
2023/02/10 02:09:44;;;;;;;;;;;;;;;11.42;68.02;103209.34;1266671;23;614;-65
2023/02/10 02:10:34;;;;;;;;;;;;;;;11.41;68.42;103215.63;1267578;23;668;-65
2023/02/10 02:11:25;;;;;;;;;;;;;;;11.42;67.70;103217.38;1266570;23;760;-65
2023/02/10 02:12:15;;;;;;;;;;;;;;;11.41;68.06;103215.63;1266779;23;605;-65
2023/02/10 02:13:05;;;;;;;;;;;;;;;11.42;67.71;103220.03;1267511;23;636;-65
2023/02/10 02:13:56;;;;;;;;;;;;;;;11.42;68.47;103214.69;1266154;23;877;-65
2023/02/10 02:14:49;;;;;;;;;;;;;;;11.44;67.89;103215.53;1267529;23;609;-64
2023/02/10 02:15:39;;;;;;;;;;;;;;;11.44;68.28;103218.19;1262081;23;621;-65
2023/02/10 02:16:29;;;;;;;;;;;;;;;11.45;67.74;103222.63;1260342;23;758;-65
2023/02/10 02:17:20;;;;;;;;;;;;;;;11.44;67.96;103226.22;1266273;23;625;-64
2023/02/10 02:18:10;;;;;;;;;;;;;;;11.43;68.25;103223.59;1266660;23;626;-65
2023/02/10 02:19:01;;;;;;;;;;;;;;;11.44;68.58;103223.53;1266782;23;599;-64
2023/02/10 02:19:51;;;;;;;;;;;;;;;11.45;67.81;103217.28;1266722;23;617;-65
2023/02/10 02:20:42;;;;;;;;;;;;;;;11.45;67.65;103225.28;1266548;23;614;-65
2023/02/10 02:21:32;;;;;;;;;;;;;;;11.46;68.48;103224.34;1266591;23;750;-64
2023/02/10 02:22:22;;;;;;;;;;;;;;;11.46;68.43;103215.47;1267504;23;625;-64
2023/02/10 02:23:13;;;;;;;;;;;;;;;11.45;67.60;103217.28;1266577;23;610;-65
2023/02/10 02:24:03;;;;;;;;;;;;;;;11.44;67.65;103222.66;1266733;23;546;-65
2023/02/10 02:24:54;;;;;;;;;;;;;;;11.42;68.26;103216.50;1266588;23;610;-65
2023/02/10 02:25:44;;;;;;;;;;;;;;;11.41;68.01;103218.28;1267480;23;715;-65
2023/02/10 02:26:34;;;;;;;;;;;;;;;11.38;67.86;103213.03;1267424;23;652;-65
2023/02/10 02:27:25;;;;;;;;;;;;;;;11.40;67.81;103211.19;1265992;23;610;-65
2023/02/10 02:28:15;;;;;;;;;;;;;;;11.41;67.91;103222.75;1266043;23;1917;-65
2023/02/10 02:29:06;;;;;;;;;;;;;;;11.40;67.86;103221.88;1267393;23;622;-65
2023/02/10 02:29:56;;;;;;;;;;;;;;;11.39;68.07;103214.78;1266629;23;677;-65
2023/02/10 02:30:47;;;;;;;;;;;;;;;11.38;68.48;103217.50;1267717;23;576;-65
2023/02/10 02:31:37;;;;;;;;;;;;;;;11.36;68.41;103220.22;1266591;23;861;-65
2023/02/10 02:32:27;;;;;;;;;;;;;;;11.36;68.22;103220.22;1266756;23;602;-65
2023/02/10 02:33:18;;;;;;;;;;;;;;;11.36;68.49;103222.00;1266618;23;661;-65
2023/02/10 02:34:08;;;;;;;;;;;;;;;11.38;68.69;103220.16;1266624;23;669;-65
2023/02/10 02:34:59;;;;;;;;;;;;;;;11.37;68.39;103221.97;1266584;23;653;-64
2023/02/10 02:35:49;;;;;;;;;;;;;;;11.38;67.79;103223.72;1266572;23;684;-64
2023/02/10 02:36:39;;;;;;;;;;;;;;;11.38;67.78;103228.19;1267581;23;641;-65
2023/02/10 02:37:30;;;;;;;;;;;;;;;11.36;68.04;103225.56;1266554;23;665;-65
2023/02/10 02:38:20;;;;;;;;;;;;;;;11.33;68.35;103236.31;1266667;23;722;-65
2023/02/10 02:39:11;;;;;;;;;;;;;;;11.35;68.00;103229.13;1266634;23;662;-65
2023/02/10 02:40:02;;;;;;;;;;;;;;;11.33;68.61;103230.97;1266590;23;668;-65
2023/02/10 02:40:52;;;;;;;;;;;;;;;11.36;68.42;103233.56;1266720;23;662;-64
2023/02/10 02:41:42;;;;;;;;;;;;;;;11.35;67.96;103229.13;1266713;23;634;-64
2023/02/10 02:42:33;;;;;;;;;;;;;;;11.37;68.19;103235.31;1266531;23;618;-65
2023/02/10 02:43:23;;;;;;;;;;;;;;;11.35;68.50;103231.81;1266738;23;614;-64
2023/02/10 02:44:14;;;;;;;;;;;;;;;11.35;68.52;103228.25;1267435;23;605;-64
2023/02/10 02:45:07;;;;;;;;;;;;;;;11.33;67.99;103230.97;1266702;23;784;-64
2023/02/10 02:45:58;;;;;;;;;;;;;;;11.33;68.55;103236.31;1264447;23;1239;-64
2023/02/10 02:46:48;;;;;;;;;;;;;;;11.34;68.94;103227.38;1266336;23;675;-64
2023/02/10 02:47:39;;;;;;;;;;;;;;;11.33;68.80;103232.78;1266559;23;665;-64
2023/02/10 02:48:29;;;;;;;;;;;;;;;11.31;68.52;103238.16;1266583;23;641;-64
2023/02/10 02:49:20;;;;;;;;;;;;;;;11.32;68.19;103234.56;1267661;23;640;-64
2023/02/10 02:50:10;;;;;;;;;;;;;;;11.30;68.22;103231.06;1266794;23;692;-64
2023/02/10 02:51:01;;;;;;;;;;;;;;;11.32;68.56;103223.88;1267515;23;649;-64
2023/02/10 02:51:51;;;;;;;;;;;;;;;11.32;68.70;103226.56;1267601;23;625;-64
2023/02/10 02:52:41;;;;;;;;;;;;;;;11.33;68.70;103230.97;1266646;23;637;-64
2023/02/10 02:53:32;;;;;;;;;;;;;;;11.30;68.45;103231.06;1266601;23;586;-64
2023/02/10 02:54:22;;;;;;;;;;;;;;;11.32;68.54;103231.91;1267505;23;672;-64
2023/02/10 02:55:13;;;;;;;;;;;;;;;11.31;67.77;103227.47;1266574;23;613;-64
2023/02/10 02:56:03;;;;;;;;;;;;;;;11.30;67.98;103227.53;1266773;23;630;-64
2023/02/10 02:56:53;;;;;;;;;;;;;;;11.30;68.91;103231.06;1266813;23;614;-64
2023/02/10 02:57:44;;;;;;;;;;;;;;;11.28;68.94;103232.94;1266534;23;616;-65
2023/02/10 02:58:34;;;;;;;;;;;;;;;11.30;68.44;103232.84;1266706;23;601;-65
2023/02/10 02:59:25;;;;;;;;;;;;;;;11.28;67.89;103224.94;1266643;23;645;-65
2023/02/10 03:00:15;;;;;;;;;;;;;;;11.27;68.25;103231.19;1268370;23;798;-65
2023/02/10 03:01:05;;;;;;;;;;;;;;;11.22;68.90;103219.75;1266835;23;626;-65
2023/02/10 03:01:56;;;;;;;;;;;;;;;11.24;68.70;103231.28;1267232;23;664;-64
2023/02/10 03:02:46;;;;;;;;;;;;;;;11.26;68.79;103224.09;1266626;23;641;-64
2023/02/10 03:03:37;;;;;;;;;;;;;;;11.26;68.68;103221.41;1266661;23;668;-65
2023/02/10 03:04:27;;;;;;;;;;;;;;;11.27;68.00;103231.19;1267561;23;672;-65
2023/02/10 03:05:18;;;;;;;;;;;;;;;11.29;68.58;103229.31;1266518;23;657;-64
2023/02/10 03:06:08;;;;;;;;;;;;;;;11.30;68.17;103225.72;1268187;23;683;-64
2023/02/10 03:06:59;;;;;;;;;;;;;;;11.32;68.67;103220.34;1267975;23;601;-64
2023/02/10 03:07:49;;;;;;;;;;;;;;;11.32;68.47;103231.03;1268222;23;676;-64
2023/02/10 03:08:40;;;;;;;;;;;;;;;11.32;68.79;103223.88;1266537;23;630;-64
2023/02/10 03:09:30;;;;;;;;;;;;;;;11.32;67.87;103223.88;1267451;23;652;-64
2023/02/10 03:10:21;;;;;;;;;;;;;;;11.32;68.00;103218.56;1266593;23;609;-64
2023/02/10 03:11:11;;;;;;;;;;;;;;;11.32;68.16;103218.56;1266825;23;618;-64
2023/02/10 03:12:02;;;;;;;;;;;;;;;11.30;68.13;103220.38;1265958;23;622;-64
2023/02/10 03:12:52;;;;;;;;;;;;;;;11.32;67.98;103223.00;1268054;23;652;-64
2023/02/10 03:13:43;;;;;;;;;;;;;;;11.30;68.72;103219.50;1266011;23;625;-64
2023/02/10 03:14:33;;;;;;;;;;;;;;;11.29;68.23;103217.75;1268299;23;741;-64
2023/02/10 03:15:23;;;;;;;;;;;;;;;11.28;68.67;103222.25;1266734;23;660;-65
2023/02/10 03:16:14;;;;;;;;;;;;;;;11.29;67.97;103217.75;1267575;23;665;-64
2023/02/10 03:17:04;;;;;;;;;;;;;;;11.29;67.73;103218.63;1266719;23;622;-65
2023/02/10 03:17:55;;;;;;;;;;;;;;;11.28;68.60;103224.03;1266451;23;637;-65
2023/02/10 03:18:45;;;;;;;;;;;;;;;11.28;67.97;103211.56;1267394;23;629;-65
2023/02/10 03:19:36;;;;;;;;;;;;;;;11.28;68.55;103216.03;1267481;23;594;-65
2023/02/10 03:20:26;;;;;;;;;;;;;;;11.25;68.27;103217.00;1266565;23;610;-65
2023/02/10 03:21:16;;;;;;;;;;;;;;;11.24;68.67;103225.06;1266815;23;645;-65
2023/02/10 03:22:07;;;;;;;;;;;;;;;11.24;68.17;103215.25;1267486;23;867;-64
2023/02/10 03:22:57;;;;;;;;;;;;;;;11.26;68.35;103215.22;1266639;23;641;-65
2023/02/10 03:23:48;;;;;;;;;;;;;;;11.27;68.66;103214.28;1266522;23;753;-65
2023/02/10 03:24:38;;;;;;;;;;;;;;;11.28;68.05;103211.56;1266588;23;642;-65
2023/02/10 03:25:29;;;;;;;;;;;;;;;11.28;68.38;103211.56;1266616;23;657;-65
2023/02/10 03:26:19;;;;;;;;;;;;;;;11.28;67.81;103211.56;1267376;23;609;-65
2023/02/10 03:27:09;;;;;;;;;;;;;;;11.29;68.45;103213.28;1267801;23;652;-65
2023/02/10 03:28:00;;;;;;;;;;;;;;;11.28;68.54;103216.03;1268125;23;1928;-65
2023/02/10 03:28:50;;;;;;;;;;;;;;;11.28;68.55;103224.94;1266595;23;680;-65
2023/02/10 03:29:41;;;;;;;;;;;;;;;11.28;67.89;103216.03;1267430;23;664;-65
2023/02/10 03:30:32;;;;;;;;;;;;;;;11.27;67.87;103217.84;1266523;23;727;-65
2023/02/10 03:31:22;;;;;;;;;;;;;;;11.27;68.47;103225.84;1266846;23;677;-65
2023/02/10 03:32:13;;;;;;;;;;;;;;;11.24;68.13;103225.94;1267407;23;649;-65
2023/02/10 03:33:03;;;;;;;;;;;;;;;11.25;68.11;103221.47;1267413;23;613;-65
2023/02/10 03:33:54;;;;;;;;;;;;;;;11.25;68.35;103219.66;1267482;23;621;-65
2023/02/10 03:34:44;;;;;;;;;;;;;;;11.26;68.31;103224.09;1266632;23;687;-65
2023/02/10 03:35:35;;;;;;;;;;;;;;;11.24;68.83;103222.38;1267358;23;636;-64
2023/02/10 03:36:25;;;;;;;;;;;;;;;11.24;68.52;103230.38;1266398;23;625;-65
2023/02/10 03:37:15;;;;;;;;;;;;;;;11.22;68.02;103227.75;1266668;23;672;-64
2023/02/10 03:38:06;;;;;;;;;;;;;;;11.19;67.99;103222.50;1267935;23;739;-64
2023/02/10 03:38:56;;;;;;;;;;;;;;;11.22;68.70;103224.22;1266233;23;684;-64
2023/02/10 03:39:47;;;;;;;;;;;;;;;11.18;68.87;103226.09;1266553;23;601;-64
2023/02/10 03:40:37;;;;;;;;;;;;;;;11.19;68.01;103227.84;1266507;23;653;-64
2023/02/10 03:41:28;;;;;;;;;;;;;;;11.20;68.56;103228.72;1266748;23;615;-64
2023/02/10 03:42:18;;;;;;;;;;;;;;;11.21;68.08;103231.34;1266392;23;645;-64
2023/02/10 03:43:09;;;;;;;;;;;;;;;11.22;68.04;103232.22;1267879;23;535;-64
2023/02/10 03:43:59;;;;;;;;;;;;;;;11.22;67.98;103233.09;1266033;23;649;-64
2023/02/10 03:44:49;;;;;;;;;;;;;;;11.22;68.58;103232.22;1266527;23;645;-64
2023/02/10 03:45:40;;;;;;;;;;;;;;;11.22;68.81;103232.22;1266396;23;641;-64
2023/02/10 03:46:30;;;;;;;;;;;;;;;11.23;68.50;103233.97;1266592;23;637;-65
2023/02/10 03:47:21;;;;;;;;;;;;;;;11.24;68.62;103233.94;1267815;23;614;-64
2023/02/10 03:48:11;;;;;;;;;;;;;;;11.25;67.81;103227.69;1266072;23;1901;-64
2023/02/10 03:49:01;;;;;;;;;;;;;;;11.24;68.12;103230.38;1266789;23;668;-64
2023/02/10 03:49:52;;;;;;;;;;;;;;;11.23;68.14;103224.19;1266484;23;691;-65
2023/02/10 03:50:42;;;;;;;;;;;;;;;11.24;68.48;103219.72;1266505;23;629;-64
2023/02/10 03:51:33;;;;;;;;;;;;;;;11.25;68.11;103226.81;1267331;23;648;-64
2023/02/10 03:52:23;;;;;;;;;;;;;;;11.24;68.08;103231.28;1266538;23;640;-64
2023/02/10 03:53:14;;;;;;;;;;;;;;;11.22;68.04;103233.09;1266402;23;644;-64
2023/02/10 03:54:04;;;;;;;;;;;;;;;11.22;67.80;103225.09;1266605;23;633;-64
2023/02/10 03:54:54;;;;;;;;;;;;;;;11.22;68.25;103226.88;1266588;23;625;-65
2023/02/10 03:55:45;;;;;;;;;;;;;;;11.22;68.77;103235.78;1267433;23;640;-65
2023/02/10 03:56:35;;;;;;;;;;;;;;;11.21;68.33;103225.13;1266516;23;664;-64
2023/02/10 03:57:26;;;;;;;;;;;;;;;11.21;68.52;103225.13;1266352;23;598;-64
2023/02/10 03:58:16;;;;;;;;;;;;;;;11.19;67.83;103226.97;1266440;23;663;-64
2023/02/10 03:59:07;;;;;;;;;;;;;;;11.20;68.69;103223.38;1266546;23;613;-64
2023/02/10 03:59:57;;;;;;;;;;;;;;;11.21;68.60;103226.00;1266505;23;665;-64
2023/02/10 04:00:47;;;;;;;;;;;;;;;11.19;68.60;103225.19;1266534;23;677;-64
2023/02/10 04:01:38;;;;;;;;;;;;;;;11.17;68.66;103223.47;1266334;23;626;-64
2023/02/10 04:02:28;;;;;;;;;;;;;;;11.16;68.68;103227.94;1266532;23;613;-64
2023/02/10 04:03:19;;;;;;;;;;;;;;;11.17;68.15;103223.47;1267291;23;688;-64
2023/02/10 04:04:09;;;;;;;;;;;;;;;11.16;68.50;103230.59;1267465;23;637;-64
2023/02/10 04:05:00;;;;;;;;;;;;;;;11.15;68.80;103234.19;1267329;23;597;-64
2023/02/10 04:05:50;;;;;;;;;;;;;;;11.12;68.72;103221.81;1266508;23;613;-64
2023/02/10 04:06:41;;;;;;;;;;;;;;;11.13;68.68;103231.56;1266477;23;684;-64
2023/02/10 04:07:31;;;;;;;;;;;;;;;11.14;68.21;103235.09;1266506;23;867;-64
2023/02/10 04:08:22;;;;;;;;;;;;;;;11.16;68.41;103230.59;1266519;23;1932;-64
2023/02/10 04:09:12;;;;;;;;;;;;;;;11.14;68.43;103235.97;1266462;23;649;-65
2023/02/10 04:10:02;;;;;;;;;;;;;;;11.15;68.07;103231.53;1267639;23;639;-65
2023/02/10 04:10:53;;;;;;;;;;;;;;;11.11;69.09;103238.72;1266638;23;629;-65
2023/02/10 04:11:43;;;;;;;;;;;;;;;11.14;68.71;103237.78;1267784;23;660;-65
2023/02/10 04:12:34;;;;;;;;;;;;;;;11.15;68.93;103236.84;1267934;23;842;-65
2023/02/10 04:13:24;;;;;;;;;;;;;;;11.16;68.15;103251.94;1268073;23;613;-65
2023/02/10 04:14:15;;;;;;;;;;;;;;;11.19;68.18;103248.31;1266623;23;629;-65
2023/02/10 04:15:05;;;;;;;;;;;;;;;11.17;68.24;103245.69;1266506;23;594;-65
2023/02/10 04:15:55;;;;;;;;;;;;;;;11.16;68.78;103251.94;1266472;23;653;-64
2023/02/10 04:16:46;;;;;;;;;;;;;;;11.17;68.79;103253.69;1267291;23;633;-65
2023/02/10 04:17:36;;;;;;;;;;;;;;;11.19;68.34;103259.88;1267385;23;664;-65
2023/02/10 04:18:27;;;;;;;;;;;;;;;11.17;68.97;103243.03;1266677;23;575;-64
2023/02/10 04:19:17;;;;;;;;;;;;;;;11.18;68.41;103247.44;1266594;23;598;-64
2023/02/10 04:20:08;;;;;;;;;;;;;;;11.18;68.37;103247.44;1267171;23;616;-65
2023/02/10 04:20:58;;;;;;;;;;;;;;;11.17;68.97;103244.81;1266451;23;626;-65
2023/02/10 04:21:49;;;;;;;;;;;;;;;11.13;68.62;103244.91;1266329;23;602;-65
2023/02/10 04:22:39;;;;;;;;;;;;;;;11.16;68.58;103243.06;1266454;23;629;-65
2023/02/10 04:23:30;;;;;;;;;;;;;;;11.14;68.38;103256.47;1267268;23;581;-65
2023/02/10 04:24:20;;;;;;;;;;;;;;;11.14;68.65;103246.66;1265754;23;653;-65
2023/02/10 04:25:10;;;;;;;;;;;;;;;11.13;68.44;103250.25;1266678;23;774;-65
2023/02/10 04:26:01;;;;;;;;;;;;;;;11.16;68.28;103251.94;1267316;23;613;-65